createdAt,value
2019-03-20T00:00:23.256Z,6.03
2019-03-20T00:02:51.659Z,5.58
2019-03-20T00:05:22.806Z,5.45
2019-03-20T00:07:51.194Z,6.17
2019-03-20T00:10:24.458Z,6.22
2019-03-20T00:12:52.891Z,7.40
2019-03-20T00:15:21.355Z,5.97
2019-03-20T00:17:49.737Z,7.22
2019-03-20T00:20:18.226Z,6.17
2019-03-20T00:22:47.750Z,7.22
2019-03-20T00:25:16.256Z,6.12
2019-03-20T00:27:44.645Z,6.35
2019-03-20T00:30:20.596Z,6.83
2019-03-20T00:32:49.019Z,6.25
2019-03-20T00:35:19.972Z,6.17
2019-03-20T00:37:48.517Z,5.87
2019-03-20T00:40:18.053Z,6.47
2019-03-20T00:42:46.988Z,6.85
2019-03-20T00:45:18.128Z,6.05
2019-03-20T00:47:46.619Z,5.95
2019-03-20T00:50:16.457Z,6.42
2019-03-20T00:52:44.922Z,6.33
2019-03-20T00:55:14.397Z,6.10
2019-03-20T00:57:43.010Z,5.78
2019-03-20T01:00:22.907Z,5.42
2019-03-20T01:02:51.327Z,6.20
2019-03-20T01:05:20.716Z,5.83
2019-03-20T01:07:50.393Z,5.08
2019-03-20T01:10:21.323Z,5.90
2019-03-20T01:12:50.021Z,5.12
2019-03-20T01:15:18.691Z,4.85
2019-03-20T01:17:47.253Z,4.65
2019-03-20T01:20:20.453Z,5.33
2019-03-20T01:22:49.301Z,5.53
2019-03-20T01:25:18.460Z,5.08
2019-03-20T01:27:46.945Z,4.40
2019-03-20T01:30:34.056Z,4.55
2019-03-20T01:33:14.267Z,5.00
2019-03-20T01:35:43.095Z,4.40
2019-03-20T01:38:14.114Z,4.53
2019-03-20T01:40:42.520Z,4.60
2019-03-20T01:43:10.964Z,4.65
2019-03-20T01:45:39.737Z,3.80
2019-03-20T01:48:08.136Z,4.90
2019-03-20T01:50:36.654Z,3.72
2019-03-20T01:53:07.058Z,4.95
2019-03-20T01:55:35.518Z,5.25
2019-03-20T01:58:04.145Z,4.20
2019-03-20T02:00:32.799Z,4.25
2019-03-20T02:03:01.255Z,4.72
2019-03-20T02:05:35.945Z,4.15
2019-03-20T02:07:59.829Z,4.30
2019-03-20T02:10:28.453Z,3.67
2019-03-20T02:12:58.756Z,4.40
2019-03-20T02:15:38.124Z,3.80
2019-03-20T02:17:57.488Z,3.30
2019-03-20T02:20:29.755Z,3.33
2019-03-20T02:22:58.193Z,3.47
2019-03-20T02:25:26.598Z,4.05
2019-03-20T02:27:54.991Z,3.62
2019-03-20T02:30:23.539Z,3.20
2019-03-20T02:32:51.961Z,3.37
2019-03-20T02:35:21.461Z,3.80
2019-03-20T02:37:49.876Z,3.02
2019-03-20T02:40:22.118Z,3.52
2019-03-20T02:42:55.902Z,3.37
2019-03-20T02:45:24.327Z,2.80
2019-03-20T02:47:52.744Z,3.55
2019-03-20T02:50:21.189Z,3.25
2019-03-20T02:52:49.561Z,3.05
2019-03-20T02:55:17.952Z,3.55
2019-03-20T02:57:46.343Z,3.08
2019-03-20T03:00:17.174Z,4.00
2019-03-20T03:02:45.592Z,3.62
2019-03-20T03:05:15.788Z,3.20
2019-03-20T03:07:44.294Z,3.58
2019-03-20T03:10:20.334Z,3.60
2019-03-20T03:12:48.730Z,3.47
2019-03-20T03:15:19.670Z,4.30
2019-03-20T03:17:49.151Z,3.33
2019-03-20T03:20:17.576Z,3.92
2019-03-20T03:22:48.636Z,3.30
2019-03-20T03:25:17.038Z,3.90
2019-03-20T03:27:45.449Z,3.52
2019-03-20T03:30:19.052Z,2.90
2019-03-20T03:32:48.667Z,4.22
2019-03-20T03:35:19.510Z,2.90
2019-03-20T03:37:47.157Z,3.77
2019-03-20T03:40:23.642Z,3.37
2019-03-20T03:42:52.044Z,3.70
2019-03-20T03:45:22.090Z,3.20
2019-03-20T03:47:50.427Z,3.20
2019-03-20T03:50:18.813Z,4.17
2019-03-20T03:52:47.197Z,4.42
2019-03-20T03:55:16.670Z,4.28
2019-03-20T03:57:45.533Z,4.65
2019-03-20T04:00:19.057Z,4.10
2019-03-20T04:02:50.053Z,4.58
2019-03-20T04:05:22.276Z,3.85
2019-03-20T04:07:50.696Z,4.97
2019-03-20T04:10:19.204Z,4.53
2019-03-20T04:12:47.701Z,3.87
2019-03-20T04:15:18.961Z,4.72
2019-03-20T04:17:49.839Z,4.87
2019-03-20T04:20:20.140Z,5.00
2019-03-20T04:22:48.551Z,5.20
2019-03-20T04:25:17.077Z,4.53
2019-03-20T04:27:45.493Z,5.30
2019-03-20T04:30:15.239Z,4.40
2019-03-20T04:32:43.653Z,5.25
2019-03-20T04:35:12.450Z,5.97
2019-03-20T04:37:45.684Z,6.45
2019-03-20T04:40:21.159Z,5.80
2019-03-20T04:42:53.348Z,7.00
2019-03-20T04:45:24.223Z,6.92
2019-03-20T04:47:55.271Z,7.37
2019-03-20T04:50:24.180Z,8.55
2019-03-20T04:52:52.568Z,7.90
2019-03-20T04:55:20.970Z,7.55
2019-03-20T04:57:49.381Z,9.73
2019-03-20T05:00:22.718Z,8.68
2019-03-20T05:02:51.130Z,10.30
2019-03-20T05:05:19.585Z,10.68
2019-03-20T05:07:49.152Z,11.22
2019-03-20T05:10:20.786Z,13.50
2019-03-20T05:12:51.634Z,16.50
2019-03-20T05:15:20.009Z,15.13
2019-03-20T05:17:48.425Z,17.00
2019-03-20T05:20:20.811Z,15.58
2019-03-20T05:22:52.335Z,16.48
2019-03-20T05:25:21.817Z,16.75
2019-03-20T05:27:50.204Z,18.40
2019-03-20T05:30:19.051Z,16.57
2019-03-20T05:32:51.611Z,17.82
2019-03-20T05:35:20.047Z,16.07
2019-03-20T05:37:48.474Z,17.27
2019-03-20T05:40:19.807Z,20.43
2019-03-20T05:42:48.245Z,20.90
2019-03-20T05:45:20.758Z,20.35
2019-03-20T05:50:18.974Z,18.25
2019-03-20T05:52:48.657Z,20.17
2019-03-20T05:55:16.965Z,23.27
2019-03-20T05:57:45.469Z,22.13
2019-03-20T06:00:19.783Z,23.10
2019-03-20T06:02:48.169Z,20.60
2019-03-20T06:05:16.595Z,20.70
2019-03-20T06:07:45.015Z,20.23
2019-03-20T06:10:15.525Z,20.45
2019-03-20T06:12:44.139Z,20.50
2019-03-20T06:15:13.589Z,20.80
2019-03-20T06:17:41.989Z,21.48
2019-03-20T06:20:14.686Z,22.37
2019-03-20T06:22:43.588Z,20.48
2019-03-20T06:25:13.623Z,21.52
2019-03-20T06:27:42.085Z,23.57
2019-03-20T06:30:13.679Z,20.00
2019-03-20T06:32:42.126Z,20.73
2019-03-20T06:35:10.940Z,19.17
2019-03-20T06:37:41.846Z,19.80
2019-03-20T06:40:13.949Z,20.17
2019-03-20T06:42:46.460Z,18.77
2019-03-20T06:45:30.028Z,19.17
2019-03-20T06:47:58.530Z,17.45
2019-03-20T06:52:11.877Z,19.73
2019-03-20T06:54:42.891Z,19.57
2019-03-20T06:58:16.722Z,20.45
2019-03-20T07:01:00.232Z,19.45
2019-03-20T07:03:40.792Z,19.57
2019-03-20T07:06:25.410Z,19.85
2019-03-20T07:09:01.778Z,22.80
2019-03-20T07:11:29.033Z,23.20
2019-03-20T07:13:57.428Z,23.87
2019-03-20T07:16:25.825Z,24.15
2019-03-20T07:18:54.247Z,23.87
2019-03-20T07:21:22.636Z,25.25
2019-03-20T07:23:51.041Z,24.35
2019-03-20T07:26:19.475Z,24.50
2019-03-20T07:28:52.020Z,23.67
2019-03-20T07:33:48.065Z,25.05
2019-03-20T07:36:16.431Z,26.68
2019-03-20T07:38:44.821Z,25.90
2019-03-20T07:41:13.216Z,26.30
2019-03-20T07:43:41.664Z,27.10
2019-03-20T07:46:10.079Z,26.57
2019-03-20T07:48:40.660Z,27.97
2019-03-20T07:51:17.065Z,25.95
2019-03-20T07:53:46.021Z,26.90
2019-03-20T07:56:16.283Z,27.20
2019-03-20T07:59:03.943Z,27.07
2019-03-20T08:01:32.349Z,27.17
2019-03-20T08:04:00.783Z,26.85
2019-03-20T08:06:29.170Z,27.75
2019-03-20T08:08:57.700Z,30.27
2019-03-20T08:11:26.138Z,31.85
2019-03-20T08:13:54.533Z,28.57
2019-03-20T08:16:22.924Z,30.65
2019-03-20T08:18:51.607Z,28.27
2019-03-20T08:21:25.092Z,28.02
2019-03-20T08:23:53.477Z,29.95
2019-03-20T08:26:26.770Z,30.97
2019-03-20T08:28:55.162Z,31.50
2019-03-20T08:31:23.601Z,29.95
2019-03-20T08:33:54.294Z,30.80
2019-03-20T08:36:22.741Z,32.10
2019-03-20T08:38:51.110Z,30.55
2019-03-20T08:41:19.497Z,28.95
2019-03-20T08:43:48.011Z,30.67
2019-03-20T08:49:13.429Z,28.55
2019-03-20T08:51:41.811Z,30.10
2019-03-20T08:54:10.252Z,27.85
2019-03-20T08:56:38.695Z,28.38
2019-03-20T08:59:07.108Z,28.30
2019-03-20T09:01:38.143Z,27.90
2019-03-20T09:04:06.638Z,27.70
2019-03-20T09:06:38.925Z,27.95
2019-03-20T09:09:08.030Z,26.02
2019-03-20T09:11:36.407Z,25.80
2019-03-20T09:14:04.879Z,24.55
2019-03-20T09:16:33.333Z,26.12
2019-03-20T09:19:01.751Z,25.43
2019-03-20T09:21:33.050Z,25.32
2019-03-20T09:24:01.464Z,25.37
2019-03-20T09:26:29.874Z,23.92
2019-03-20T09:28:58.255Z,26.77
2019-03-20T09:31:26.667Z,25.50
2019-03-20T09:33:55.149Z,24.90
2019-03-20T09:36:23.595Z,26.77
2019-03-20T09:38:53.146Z,24.63
2019-03-20T09:41:21.578Z,26.10
2019-03-20T09:43:51.437Z,25.60
2019-03-20T09:46:19.831Z,25.80
2019-03-20T09:48:48.273Z,24.52
2019-03-20T09:51:16.712Z,24.45
2019-03-20T09:53:46.166Z,24.82
2019-03-20T09:56:14.613Z,24.20
2019-03-20T09:58:43.004Z,23.52
2019-03-20T10:01:11.420Z,24.00
2019-03-20T10:03:43.573Z,23.90
2019-03-20T10:06:13.074Z,24.18
2019-03-20T10:08:41.528Z,27.00
2019-03-20T10:11:09.919Z,24.63
2019-03-20T10:13:38.321Z,25.33
2019-03-20T10:16:08.495Z,26.20
2019-03-20T10:18:36.927Z,23.60
2019-03-20T10:21:05.416Z,25.20
2019-03-20T10:23:37.647Z,25.27
2019-03-20T10:26:06.049Z,22.73
2019-03-20T10:28:38.305Z,24.20
2019-03-20T10:31:07.825Z,26.30
2019-03-20T10:33:36.215Z,24.40
2019-03-20T10:36:08.748Z,25.32
2019-03-20T10:41:04.935Z,25.30
2019-03-20T10:43:33.336Z,27.90
2019-03-20T10:46:01.936Z,25.75
2019-03-20T10:48:30.351Z,26.03
2019-03-20T10:50:58.765Z,27.22
2019-03-20T10:53:27.194Z,27.13
2019-03-20T10:55:55.604Z,28.20
2019-03-20T10:58:27.475Z,27.77
2019-03-20T11:00:55.093Z,27.50
2019-03-20T11:03:23.489Z,30.62
2019-03-20T11:05:52.990Z,27.52
2019-03-20T11:08:21.578Z,29.67
2019-03-20T11:10:50.178Z,29.70
2019-03-20T11:13:18.553Z,29.02
2019-03-20T11:15:50.930Z,29.63
2019-03-20T11:18:20.897Z,30.22
2019-03-20T11:20:49.304Z,29.77
2019-03-20T11:23:17.744Z,28.55
2019-03-20T11:25:46.164Z,29.98
2019-03-20T11:28:14.587Z,30.85
2019-03-20T11:30:45.676Z,30.80
2019-03-20T11:33:14.094Z,31.75
2019-03-20T11:35:42.681Z,30.88
2019-03-20T11:38:12.400Z,32.25
2019-03-20T11:40:41.766Z,32.53
2019-03-20T11:43:12.798Z,31.62
2019-03-20T11:45:43.820Z,29.03
2019-03-20T11:48:11.373Z,30.88
2019-03-20T11:50:40.848Z,29.98
2019-03-20T11:53:10.026Z,32.30
2019-03-20T11:55:38.767Z,30.68
2019-03-20T11:58:08.768Z,30.88
2019-03-20T12:00:37.179Z,29.85
2019-03-20T12:03:11.977Z,31.85
2019-03-20T12:05:40.969Z,29.45
2019-03-20T12:08:09.384Z,32.40
2019-03-20T12:10:38.747Z,31.17
2019-03-20T12:13:07.158Z,32.75
2019-03-20T12:15:39.186Z,33.05
2019-03-20T12:18:07.586Z,36.73
2019-03-20T12:20:36.990Z,37.53
2019-03-20T12:23:05.558Z,35.75
2019-03-20T12:25:36.036Z,35.45
2019-03-20T12:28:04.834Z,37.58
2019-03-20T12:30:39.932Z,36.83
2019-03-20T12:33:07.843Z,37.63
2019-03-20T12:35:46.589Z,36.53
2019-03-20T12:38:15.934Z,37.83
2019-03-20T12:40:44.415Z,39.45
2019-03-20T12:43:12.898Z,39.58
2019-03-20T12:45:41.405Z,38.90
2019-03-20T12:48:12.889Z,39.00
2019-03-20T12:50:41.322Z,39.83
2019-03-20T12:53:18.930Z,40.63
2019-03-20T12:55:47.404Z,38.50
2019-03-20T12:58:15.849Z,39.42
2019-03-20T13:05:40.223Z,40.28
2019-03-20T13:08:08.663Z,37.78
2019-03-20T13:10:37.112Z,43.10
2019-03-20T13:13:05.929Z,38.55
2019-03-20T13:15:34.318Z,39.95
2019-03-20T13:18:06.373Z,41.90
2019-03-20T13:20:34.795Z,39.85
2019-03-20T13:23:06.983Z,41.70
2019-03-20T13:25:35.392Z,38.90
2019-03-20T13:28:03.862Z,40.58
2019-03-20T13:30:48.916Z,38.92
2019-03-20T13:33:25.714Z,40.65
2019-03-20T13:35:48.086Z,42.10
2019-03-20T13:38:19.542Z,41.05
2019-03-20T13:40:47.979Z,41.08
2019-03-20T13:43:16.454Z,39.67
2019-03-20T13:45:47.582Z,41.30
2019-03-20T13:48:21.259Z,41.63
2019-03-20T13:50:49.654Z,39.63
2019-03-20T13:53:19.165Z,40.48
2019-03-20T13:55:52.624Z,41.65
2019-03-20T13:58:22.328Z,40.70
2019-03-20T14:00:50.772Z,38.00
2019-03-20T14:03:20.116Z,38.96
2019-03-20T14:05:48.599Z,38.10
2019-03-20T14:08:17.015Z,39.35
2019-03-20T14:10:50.442Z,41.98
2019-03-20T14:13:15.607Z,37.17
2019-03-20T14:15:45.276Z,40.65
2019-03-20T14:18:13.645Z,41.73
2019-03-20T14:20:42.083Z,42.08
2019-03-20T14:23:12.890Z,44.15
2019-03-20T14:25:40.635Z,42.62
2019-03-20T14:28:09.074Z,43.70
2019-03-20T14:30:37.471Z,45.08
2019-03-20T14:33:05.861Z,42.67
2019-03-20T14:35:34.325Z,43.57
2019-03-20T14:38:02.732Z,44.80
2019-03-20T14:40:36.005Z,43.92
2019-03-20T14:43:02.456Z,43.73
2019-03-20T14:45:31.076Z,46.98
2019-03-20T14:47:59.513Z,45.33
2019-03-20T14:50:29.422Z,48.30
2019-03-20T14:53:17.183Z,49.53
2019-03-20T14:55:47.933Z,49.20
2019-03-20T14:58:15.731Z,48.68
2019-03-20T15:00:44.180Z,49.23
2019-03-20T15:03:12.612Z,50.17
2019-03-20T15:05:41.087Z,45.88
2019-03-20T15:08:09.495Z,49.93
2019-03-20T15:10:45.685Z,49.30
2019-03-20T15:13:08.104Z,49.60
2019-03-20T15:15:42.741Z,49.73
2019-03-20T15:18:11.147Z,49.50
2019-03-20T15:20:39.571Z,51.42
2019-03-20T15:23:08.006Z,49.85
2019-03-20T15:25:36.424Z,51.00
2019-03-20T15:28:05.377Z,49.58
2019-03-20T15:30:33.903Z,50.35
2019-03-20T15:33:02.347Z,51.25
2019-03-20T15:35:30.767Z,49.90
2019-03-20T15:37:59.220Z,53.13
2019-03-20T15:40:29.715Z,51.15
2019-03-20T15:42:58.180Z,50.05
2019-03-20T15:45:27.668Z,50.08
2019-03-20T15:47:56.073Z,48.60
2019-03-20T15:50:29.213Z,50.65
2019-03-20T15:52:57.624Z,49.98
2019-03-20T15:55:33.069Z,51.65
2019-03-20T15:58:01.553Z,49.60
2019-03-20T16:00:30.194Z,49.55
2019-03-20T16:03:13.241Z,51.10
2019-03-20T16:05:42.208Z,49.88
2019-03-20T16:08:10.606Z,49.18
2019-03-20T16:10:39.096Z,48.83
2019-03-20T16:13:08.453Z,48.95
2019-03-20T16:15:36.888Z,47.93
2019-03-20T16:18:05.287Z,48.70
2019-03-20T16:20:33.684Z,50.28
2019-03-20T16:23:02.071Z,49.73
2019-03-20T16:25:30.919Z,47.80
2019-03-20T16:27:59.327Z,52.88
2019-03-20T16:30:30.117Z,48.73
2019-03-20T16:32:58.516Z,52.88
2019-03-20T16:35:28.760Z,51.80
2019-03-20T16:37:57.150Z,54.38
2019-03-20T16:40:27.284Z,52.78
2019-03-20T16:42:56.842Z,54.05
2019-03-20T16:45:34.385Z,52.03
2019-03-20T16:48:03.021Z,52.78
2019-03-20T16:50:55.322Z,54.38
2019-03-20T16:53:28.283Z,56.88
2019-03-20T16:55:57.055Z,54.88
2019-03-20T16:58:25.439Z,59.17
2019-03-20T17:00:53.879Z,61.20
2019-03-20T17:03:26.443Z,63.13
2019-03-20T17:05:54.949Z,58.55
2019-03-20T17:08:23.381Z,60.73
2019-03-20T17:10:51.815Z,61.48
2019-03-20T17:13:20.339Z,60.75
2019-03-20T17:15:48.763Z,61.77
2019-03-20T17:18:19.819Z,63.30
2019-03-20T17:20:51.635Z,62.88
2019-03-20T17:23:24.684Z,66.20
2019-03-20T17:25:54.448Z,63.92
2019-03-20T17:28:22.844Z,67.72
2019-03-20T17:30:53.723Z,64.40
2019-03-20T17:33:26.672Z,64.97
2019-03-20T17:35:55.108Z,66.35
2019-03-20T17:38:23.519Z,65.80
2019-03-20T17:41:01.288Z,64.55
2019-03-20T17:43:29.667Z,66.40
2019-03-20T17:45:58.068Z,75.87
2019-03-20T17:48:26.465Z,68.67
2019-03-20T17:50:54.901Z,68.05
2019-03-20T17:53:24.321Z,64.30
2019-03-20T17:55:59.601Z,67.32
2019-03-20T17:58:26.579Z,66.37
2019-03-20T18:00:56.677Z,66.05
2019-03-20T18:03:25.083Z,67.58
2019-03-20T18:05:53.497Z,69.27
2019-03-20T18:08:26.061Z,70.67
2019-03-20T18:10:53.201Z,69.25
2019-03-20T18:13:25.677Z,70.75
2019-03-20T18:18:21.878Z,64.90
2019-03-20T18:20:50.322Z,66.85
2019-03-20T18:23:18.738Z,66.70
2019-03-20T18:25:48.937Z,66.57
2019-03-20T18:28:21.694Z,66.50
2019-03-20T18:30:51.238Z,67.40
2019-03-20T18:33:21.364Z,65.54
2019-03-20T18:35:50.241Z,68.55
2019-03-20T18:38:33.498Z,65.65
2019-03-20T18:41:02.061Z,70.62
2019-03-20T18:43:32.952Z,66.40
2019-03-20T18:46:03.953Z,68.97
2019-03-20T18:48:36.257Z,70.60
2019-03-20T18:51:08.777Z,69.05
2019-03-20T18:53:37.253Z,67.30
2019-03-20T18:56:08.118Z,70.47
2019-03-20T18:58:36.597Z,69.17
2019-03-20T19:01:05.195Z,68.50
2019-03-20T19:03:36.630Z,68.37
2019-03-20T19:06:14.685Z,72.42
2019-03-20T19:08:43.200Z,68.42
2019-03-20T19:11:11.723Z,69.77
2019-03-20T19:13:40.576Z,66.82
2019-03-20T19:16:08.981Z,66.07
2019-03-20T19:18:39.294Z,66.83
2019-03-20T19:21:07.699Z,65.62
2019-03-20T19:23:37.173Z,65.78
2019-03-20T19:26:08.337Z,66.67
2019-03-20T19:28:36.750Z,64.63
2019-03-20T19:31:05.345Z,63.78
2019-03-20T19:33:33.771Z,66.13
2019-03-20T19:36:02.167Z,64.58
2019-03-20T19:38:34.802Z,66.27
2019-03-20T19:41:01.390Z,63.65
2019-03-20T19:43:30.534Z,64.63
2019-03-20T19:45:59.086Z,61.55
2019-03-20T19:48:29.462Z,61.90
2019-03-20T19:50:57.614Z,63.23
2019-03-20T19:53:26.015Z,64.80
2019-03-20T19:55:54.441Z,62.95
2019-03-20T19:58:22.869Z,64.65
2019-03-20T20:00:51.313Z,63.58
2019-03-20T20:03:20.592Z,62.26
2019-03-20T20:05:48.993Z,63.73
2019-03-20T20:08:17.382Z,63.90
2019-03-20T20:10:45.828Z,62.85
2019-03-20T20:13:14.260Z,64.03
2019-03-20T20:15:42.705Z,67.10
2019-03-20T20:18:11.145Z,63.87
2019-03-20T20:20:40.536Z,64.13
2019-03-20T20:23:08.914Z,61.00
2019-03-20T20:25:37.366Z,63.68
2019-03-20T20:28:06.723Z,63.17
2019-03-20T20:30:35.139Z,64.03
2019-03-20T20:33:03.665Z,66.28
2019-03-20T20:35:32.054Z,66.70
2019-03-20T20:38:00.873Z,66.37
2019-03-20T20:40:30.407Z,65.95
2019-03-20T20:42:58.905Z,68.90
2019-03-20T20:45:28.485Z,69.72
2019-03-20T20:47:56.932Z,64.87
2019-03-20T20:50:25.323Z,69.27
2019-03-20T20:52:53.743Z,64.40
2019-03-20T20:55:23.105Z,62.15
2019-03-20T20:57:51.649Z,61.18
2019-03-20T21:00:27.039Z,65.78
2019-03-20T21:02:55.522Z,67.53
2019-03-20T21:05:23.938Z,66.47
2019-03-20T21:07:53.988Z,66.53
2019-03-20T21:10:24.418Z,64.27
2019-03-20T21:12:56.618Z,66.20
2019-03-20T21:15:38.405Z,65.92
2019-03-20T21:18:15.626Z,60.95
2019-03-20T21:20:49.947Z,64.05
2019-03-20T21:23:39.938Z,65.10
2019-03-20T21:26:09.615Z,61.88
2019-03-20T21:28:53.028Z,63.37
2019-03-20T21:31:29.134Z,63.65
2019-03-20T21:34:19.904Z,61.90
2019-03-20T21:37:14.399Z,62.90
2019-03-20T21:39:45.026Z,59.90
2019-03-20T21:42:35.211Z,62.88
2019-03-20T21:45:33.137Z,59.73
2019-03-20T21:48:04.537Z,61.50
2019-03-20T21:50:53.537Z,60.77
2019-03-20T21:53:53.771Z,61.45
2019-03-20T21:56:29.362Z,59.38
2019-03-20T21:59:24.491Z,58.65
2019-03-20T22:02:36.215Z,58.73
2019-03-20T22:05:10.066Z,57.83
2019-03-20T22:07:41.325Z,58.75
2019-03-20T22:10:25.310Z,60.80
2019-03-20T22:13:17.783Z,56.80
2019-03-20T22:16:07.709Z,59.00
2019-03-20T22:19:31.763Z,60.40
2019-03-20T22:22:16.443Z,57.50
2019-03-20T22:25:21.421Z,59.35
2019-03-20T22:28:00.274Z,58.87
2019-03-20T22:30:28.591Z,58.47
2019-03-20T22:33:14.719Z,56.28
2019-03-20T22:35:46.416Z,59.35
2019-03-20T22:38:17.894Z,56.88
2019-03-20T22:41:22.833Z,60.73
2019-03-20T22:43:54.307Z,57.60
2019-03-20T22:46:37.838Z,58.75
2019-03-20T22:49:27.727Z,55.38
2019-03-20T22:52:19.656Z,61.35
2019-03-20T22:55:07.427Z,59.17
2019-03-20T22:57:41.712Z,57.88
2019-03-20T23:00:11.064Z,60.80
2019-03-20T23:02:54.850Z,62.00
2019-03-20T23:05:23.261Z,57.33
2019-03-20T23:07:51.662Z,56.48
2019-03-20T23:10:21.138Z,57.85
2019-03-20T23:12:50.790Z,57.50
2019-03-20T23:15:20.826Z,58.73
2019-03-20T23:17:51.820Z,58.83
2019-03-20T23:20:32.263Z,58.55
2019-03-20T23:23:01.115Z,58.17
2019-03-20T23:25:29.573Z,59.70
2019-03-20T23:28:00.062Z,60.48
2019-03-20T23:30:30.602Z,55.05
2019-03-20T23:32:59.144Z,58.85
2019-03-20T23:35:27.537Z,60.00
2019-03-20T23:37:55.930Z,59.83
2019-03-20T23:40:24.350Z,59.38
2019-03-20T23:42:56.039Z,63.13
2019-03-20T23:45:24.635Z,62.50
2019-03-20T23:47:57.518Z,59.95
2019-03-20T23:50:25.997Z,59.70
2019-03-20T23:52:54.408Z,61.28
2019-03-20T23:55:22.819Z,57.85
2019-03-20T23:57:51.247Z,57.50
